createdAt,value
2017-03-09T00:00:58.963Z,22.30
2017-03-09T00:01:58.048Z,23.58
2017-03-09T00:02:56.664Z,24.10
2017-03-09T00:03:55.331Z,24.33
2017-03-09T00:04:54.099Z,23.55
2017-03-09T00:05:52.743Z,20.67
2017-03-09T00:06:51.384Z,20.35
2017-03-09T00:07:50.320Z,19.23
2017-03-09T00:08:48.955Z,19.05
2017-03-09T00:09:47.611Z,20.85
2017-03-09T00:10:46.246Z,18.02
2017-03-09T00:11:56.068Z,19.68
2017-03-09T00:13:05.866Z,20.67
2017-03-09T00:14:15.803Z,19.53
2017-03-09T00:15:14.446Z,21.67
2017-03-09T00:16:13.126Z,22.25
2017-03-09T00:17:11.794Z,21.83
2017-03-09T00:18:10.836Z,21.55
2017-03-09T00:19:09.450Z,22.98
2017-03-09T00:20:08.062Z,23.35
2017-03-09T00:21:06.741Z,23.90
2017-03-09T00:22:05.516Z,22.67
2017-03-09T00:23:04.153Z,23.67
2017-03-09T00:24:03.315Z,26.25
2017-03-09T00:25:01.873Z,27.43
2017-03-09T00:26:00.501Z,23.32
2017-03-09T00:26:59.159Z,25.25
2017-03-09T00:27:58.281Z,25.95
2017-03-09T00:28:56.895Z,23.20
2017-03-09T00:29:55.640Z,22.15
2017-03-09T00:30:54.286Z,21.17
2017-03-09T00:31:52.973Z,20.63
2017-03-09T00:32:51.599Z,21.93
2017-03-09T00:33:50.695Z,22.02
2017-03-09T00:34:49.429Z,22.03
2017-03-09T00:35:48.889Z,18.98
2017-03-09T00:36:48.171Z,21.10
2017-03-09T00:37:46.927Z,21.07
2017-03-09T00:38:45.798Z,22.88
2017-03-09T00:39:45.552Z,22.92
2017-03-09T00:40:45.510Z,23.38
2017-03-09T00:41:44.712Z,23.68
2017-03-09T00:42:44.097Z,23.28
2017-03-09T00:43:43.522Z,24.28
2017-03-09T00:44:42.355Z,23.77
2017-03-09T00:45:41.369Z,23.47
2017-03-09T00:46:40.769Z,24.63
2017-03-09T00:47:39.703Z,19.40
2017-03-09T00:48:38.604Z,20.88
2017-03-09T00:49:37.346Z,21.22
2017-03-09T00:50:36.526Z,19.27
2017-03-09T00:51:37.887Z,19.50
2017-03-09T00:52:37.380Z,18.85
2017-03-09T00:53:36.338Z,21.50
2017-03-09T00:54:35.352Z,21.15
2017-03-09T00:55:34.006Z,18.13
2017-03-09T00:56:33.107Z,18.37
2017-03-09T00:57:32.163Z,18.32
2017-03-09T00:58:31.065Z,18.72
2017-03-09T00:59:29.947Z,19.02
2017-03-09T01:00:29.076Z,18.38
2017-03-09T01:01:28.443Z,18.50
2017-03-09T01:02:27.205Z,17.82
2017-03-09T01:03:25.942Z,18.12
2017-03-09T01:04:24.987Z,18.60
2017-03-09T01:05:23.949Z,15.87
2017-03-09T01:06:22.759Z,18.53
2017-03-09T01:07:22.011Z,17.87
2017-03-09T01:08:21.144Z,18.95
2017-03-09T01:09:20.270Z,19.65
2017-03-09T01:10:20.091Z,16.33
2017-03-09T01:11:19.058Z,17.73
2017-03-09T01:12:17.885Z,15.60
2017-03-09T01:13:17.224Z,17.60
2017-03-09T01:14:15.930Z,18.00
2017-03-09T01:15:17.318Z,16.48
2017-03-09T01:16:16.368Z,17.18
2017-03-09T01:17:15.203Z,19.15
2017-03-09T01:18:13.966Z,18.98
2017-03-09T01:19:12.890Z,20.33
2017-03-09T01:20:12.059Z,19.33
2017-03-09T01:21:11.028Z,18.62
2017-03-09T01:22:09.786Z,18.83
2017-03-09T01:23:09.186Z,18.13
2017-03-09T01:24:08.122Z,18.10
2017-03-09T01:25:07.590Z,18.55
2017-03-09T01:26:06.521Z,19.45
2017-03-09T01:27:05.316Z,18.00
2017-03-09T01:28:04.266Z,20.15
2017-03-09T01:29:03.087Z,21.25
2017-03-09T01:30:01.840Z,21.10
2017-03-09T01:31:01.341Z,17.68
2017-03-09T01:32:00.180Z,19.45
2017-03-09T01:32:59.129Z,19.05
2017-03-09T01:33:57.974Z,16.92
2017-03-09T01:34:57.144Z,18.23
2017-03-09T01:35:56.365Z,19.10
2017-03-09T01:36:55.487Z,18.43
2017-03-09T01:37:54.138Z,18.82
2017-03-09T01:38:53.284Z,18.38
2017-03-09T01:39:52.059Z,18.78
2017-03-09T01:40:51.087Z,16.88
2017-03-09T01:41:50.845Z,18.23
2017-03-09T01:42:49.712Z,17.15
2017-03-09T01:43:48.574Z,17.57
2017-03-09T01:44:47.257Z,16.88
2017-03-09T01:45:46.620Z,17.90
2017-03-09T01:46:45.421Z,15.72
2017-03-09T01:47:44.327Z,17.65
2017-03-09T01:48:43.563Z,17.97
2017-03-09T01:49:42.308Z,18.15
2017-03-09T01:50:40.971Z,17.92
2017-03-09T01:51:39.820Z,17.88
2017-03-09T01:52:38.567Z,18.18
2017-03-09T01:53:38.114Z,17.90
2017-03-09T01:54:37.386Z,17.57
2017-03-09T01:55:36.351Z,18.43
2017-03-09T01:56:35.073Z,18.18
2017-03-09T01:57:33.800Z,20.20
2017-03-09T01:58:33.039Z,17.90
2017-03-09T01:59:32.416Z,17.78
2017-03-09T02:00:31.517Z,16.18
2017-03-09T02:01:31.068Z,16.33
2017-03-09T02:02:29.657Z,14.10
2017-03-09T02:03:28.511Z,15.67
2017-03-09T02:04:27.450Z,13.30
2017-03-09T02:05:27.310Z,14.97
2017-03-09T02:06:25.983Z,14.25
2017-03-09T02:07:24.822Z,15.43
2017-03-09T02:08:23.818Z,16.02
2017-03-09T02:09:22.557Z,15.95
2017-03-09T02:10:21.298Z,15.75
2017-03-09T02:11:20.149Z,15.27
2017-03-09T02:12:19.480Z,15.38
2017-03-09T02:13:18.238Z,16.62
2017-03-09T02:14:17.191Z,16.77
2017-03-09T02:15:16.766Z,17.17
2017-03-09T02:16:15.620Z,16.93
2017-03-09T02:17:14.439Z,17.35
2017-03-09T02:18:14.243Z,17.93
2017-03-09T02:19:13.182Z,16.97
2017-03-09T02:20:12.329Z,15.80
2017-03-09T02:21:11.235Z,15.68
2017-03-09T02:22:09.922Z,15.75
2017-03-09T02:23:09.012Z,15.80
2017-03-09T02:24:08.258Z,17.13
2017-03-09T02:25:08.017Z,16.58
2017-03-09T02:26:06.850Z,15.82
2017-03-09T02:27:06.831Z,18.03
2017-03-09T02:28:05.954Z,16.78
2017-03-09T02:29:04.898Z,15.83
2017-03-09T02:30:03.886Z,16.90
2017-03-09T02:31:02.732Z,17.25
2017-03-09T02:32:01.784Z,16.02
2017-03-09T02:33:01.087Z,16.83
2017-03-09T02:34:00.052Z,17.53
2017-03-09T02:34:59.308Z,16.13
2017-03-09T02:35:58.462Z,16.38
2017-03-09T02:36:57.211Z,17.70
2017-03-09T02:37:56.759Z,17.07
2017-03-09T02:38:55.538Z,16.77
2017-03-09T02:39:54.400Z,17.42
2017-03-09T02:40:53.444Z,18.58
2017-03-09T02:41:52.522Z,18.13
2017-03-09T02:42:51.528Z,18.10
2017-03-09T02:43:50.118Z,18.90
2017-03-09T02:44:49.780Z,18.55
2017-03-09T02:45:48.908Z,17.48
2017-03-09T02:46:48.066Z,17.08
2017-03-09T02:47:47.050Z,17.62
2017-03-09T02:48:47.491Z,18.23
2017-03-09T02:49:46.709Z,18.00
2017-03-09T02:50:45.407Z,18.92
2017-03-09T02:51:44.467Z,18.35
2017-03-09T02:52:43.395Z,18.75
2017-03-09T02:53:42.031Z,19.18
2017-03-09T02:54:41.112Z,18.55
2017-03-09T02:55:40.012Z,19.42
2017-03-09T02:56:39.122Z,17.80
2017-03-09T02:57:37.816Z,19.22
2017-03-09T02:58:37.003Z,19.43
2017-03-09T02:59:36.679Z,20.10
2017-03-09T03:00:35.716Z,20.87
2017-03-09T03:01:36.158Z,20.37
2017-03-09T03:02:35.935Z,19.88
2017-03-09T03:03:35.061Z,20.27
2017-03-09T03:04:33.786Z,23.00
2017-03-09T03:05:33.436Z,21.93
2017-03-09T03:06:32.511Z,22.38
2017-03-09T03:07:31.383Z,22.30
2017-03-09T03:08:30.098Z,21.22
2017-03-09T03:09:29.354Z,21.50
2017-03-09T03:10:28.619Z,22.35
2017-03-09T03:11:27.895Z,24.67
2017-03-09T03:12:26.674Z,25.15
2017-03-09T03:13:26.738Z,24.55
2017-03-09T03:14:25.354Z,24.05
2017-03-09T03:15:24.257Z,22.37
2017-03-09T03:16:23.269Z,22.87
2017-03-09T03:17:21.847Z,21.98
2017-03-09T03:18:20.483Z,21.08
2017-03-09T03:19:19.209Z,20.95
2017-03-09T03:20:17.926Z,21.55
2017-03-09T03:21:16.909Z,22.22
2017-03-09T03:22:16.582Z,22.23
2017-03-09T03:23:15.564Z,21.83
2017-03-09T03:24:15.116Z,21.60
2017-03-09T03:25:13.808Z,21.70
2017-03-09T03:26:12.742Z,22.70
2017-03-09T03:27:11.488Z,21.62
2017-03-09T03:28:10.119Z,23.57
2017-03-09T03:29:10.035Z,22.03
2017-03-09T03:30:09.233Z,23.80
2017-03-09T03:31:08.383Z,23.32
2017-03-09T03:32:07.048Z,22.08
2017-03-09T03:33:05.871Z,19.95
2017-03-09T03:34:05.199Z,22.75
2017-03-09T03:35:04.017Z,23.80
2017-03-09T03:36:03.041Z,25.02
2017-03-09T03:37:01.653Z,23.65
2017-03-09T03:38:00.550Z,22.92
2017-03-09T03:38:59.677Z,21.22
2017-03-09T03:39:58.344Z,22.02
2017-03-09T03:40:57.261Z,20.28
2017-03-09T03:41:56.644Z,22.15
2017-03-09T03:42:55.350Z,24.72
2017-03-09T03:43:53.909Z,27.42
2017-03-09T03:44:53.286Z,25.62
2017-03-09T03:45:52.418Z,26.02
2017-03-09T03:46:51.318Z,25.63
2017-03-09T03:47:50.127Z,26.28
2017-03-09T03:48:49.246Z,25.13
2017-03-09T03:49:48.961Z,24.57
2017-03-09T03:50:48.069Z,24.58
2017-03-09T03:51:47.257Z,24.67
2017-03-09T03:52:45.953Z,21.22
2017-03-09T03:53:44.913Z,22.35
2017-03-09T03:54:44.484Z,21.18
2017-03-09T03:55:43.141Z,22.35
2017-03-09T03:56:42.311Z,21.40
2017-03-09T03:57:41.851Z,21.68
2017-03-09T03:58:40.832Z,22.03
2017-03-09T03:59:39.511Z,21.40
2017-03-09T04:00:38.079Z,22.25
2017-03-09T04:01:37.262Z,22.62
2017-03-09T04:02:36.350Z,23.58
2017-03-09T04:03:35.193Z,25.00
2017-03-09T04:04:33.919Z,24.10
2017-03-09T04:05:32.933Z,22.60
2017-03-09T04:06:31.967Z,25.12
2017-03-09T04:07:30.872Z,23.65
2017-03-09T04:08:29.826Z,22.90
2017-03-09T04:09:28.937Z,23.88
2017-03-09T04:10:28.199Z,23.05
2017-03-09T04:11:26.865Z,24.75
2017-03-09T04:12:27.285Z,24.15
2017-03-09T04:13:25.910Z,24.43
2017-03-09T04:14:24.931Z,23.32
2017-03-09T04:15:23.918Z,25.90
2017-03-09T04:16:22.669Z,26.83
2017-03-09T04:17:21.389Z,24.92
2017-03-09T04:18:20.128Z,25.80
2017-03-09T04:19:19.113Z,25.00
2017-03-09T04:20:17.856Z,25.88
2017-03-09T04:21:17.119Z,25.25
2017-03-09T04:22:16.143Z,24.37
2017-03-09T04:23:15.443Z,24.63
2017-03-09T04:24:14.220Z,22.32
2017-03-09T04:25:13.156Z,22.90
2017-03-09T04:26:12.895Z,21.90
2017-03-09T04:27:11.694Z,22.32
2017-03-09T04:28:10.466Z,21.72
2017-03-09T04:29:09.518Z,21.95
2017-03-09T04:30:08.743Z,21.65
2017-03-09T04:31:08.986Z,22.90
2017-03-09T04:32:08.830Z,22.30
2017-03-09T04:33:07.494Z,24.15
2017-03-09T04:34:06.189Z,24.43
2017-03-09T04:35:05.279Z,22.97
2017-03-09T04:36:04.212Z,21.23
2017-03-09T04:37:02.990Z,22.75
2017-03-09T04:38:01.627Z,20.98
2017-03-09T04:39:01.311Z,22.15
2017-03-09T04:40:00.337Z,23.90
2017-03-09T04:40:59.359Z,23.17
2017-03-09T04:41:58.120Z,22.75
2017-03-09T04:42:57.383Z,21.95
2017-03-09T04:43:56.324Z,25.73
2017-03-09T04:44:55.252Z,27.82
2017-03-09T04:45:53.865Z,31.50
2017-03-09T04:46:53.421Z,28.18
2017-03-09T04:47:52.617Z,29.00
2017-03-09T04:48:51.627Z,29.68
2017-03-09T04:49:50.510Z,31.03
2017-03-09T04:50:49.190Z,29.70
2017-03-09T04:51:48.245Z,29.20
2017-03-09T04:52:47.286Z,23.53
2017-03-09T04:53:46.495Z,20.48
2017-03-09T04:54:45.493Z,22.72
2017-03-09T04:55:44.623Z,21.17
2017-03-09T04:56:43.523Z,20.92
2017-03-09T04:57:42.577Z,22.90
2017-03-09T04:58:41.251Z,22.58
2017-03-09T04:59:40.318Z,25.42
2017-03-09T05:00:39.421Z,24.50
2017-03-09T05:01:38.755Z,22.87
2017-03-09T05:02:37.535Z,23.37
2017-03-09T05:03:37.198Z,24.40
2017-03-09T05:04:36.448Z,26.07
2017-03-09T05:05:35.284Z,26.65
2017-03-09T05:06:34.441Z,30.72
2017-03-09T05:07:33.984Z,32.10
2017-03-09T05:08:32.932Z,31.48
2017-03-09T05:09:32.083Z,28.15
2017-03-09T05:10:31.203Z,27.55
2017-03-09T05:11:29.830Z,27.32
2017-03-09T05:12:29.041Z,24.70
2017-03-09T05:13:28.245Z,25.78
2017-03-09T05:14:26.857Z,25.05
2017-03-09T05:15:25.753Z,26.17
2017-03-09T05:16:25.410Z,25.55
2017-03-09T05:17:24.527Z,26.48
2017-03-09T05:18:23.476Z,28.13
2017-03-09T05:19:22.161Z,26.88
2017-03-09T05:20:21.207Z,26.20
2017-03-09T05:21:20.559Z,28.32
2017-03-09T05:22:20.043Z,25.68
2017-03-09T05:23:19.102Z,26.60
2017-03-09T05:24:17.716Z,23.88
2017-03-09T05:25:17.518Z,26.43
2017-03-09T05:26:16.431Z,28.70
2017-03-09T05:27:15.215Z,26.55
2017-03-09T05:28:13.827Z,24.75
2017-03-09T05:29:12.969Z,25.58
2017-03-09T05:30:11.874Z,27.90
2017-03-09T05:31:10.728Z,25.38
2017-03-09T05:32:09.790Z,24.97
2017-03-09T05:33:08.796Z,25.72
2017-03-09T05:34:07.694Z,30.63
2017-03-09T05:35:06.755Z,33.15
2017-03-09T05:36:05.906Z,35.27
2017-03-09T05:37:04.843Z,35.80
2017-03-09T05:38:03.724Z,37.88
2017-03-09T05:39:02.577Z,32.10
2017-03-09T05:40:02.031Z,34.57
2017-03-09T05:41:01.519Z,33.08
2017-03-09T05:42:00.974Z,32.08
2017-03-09T05:43:00.454Z,29.52
2017-03-09T05:43:59.845Z,30.60
2017-03-09T05:44:58.776Z,29.42
2017-03-09T05:45:57.535Z,27.68
2017-03-09T05:46:56.311Z,30.05
2017-03-09T05:47:55.236Z,31.73
2017-03-09T05:48:54.481Z,32.03
2017-03-09T05:49:53.521Z,36.07
2017-03-09T05:50:52.674Z,34.73
2017-03-09T05:51:51.526Z,34.90
2017-03-09T05:52:50.180Z,32.82
2017-03-09T05:53:49.112Z,33.85
2017-03-09T05:54:47.947Z,28.65
2017-03-09T05:55:46.953Z,29.43
2017-03-09T05:56:45.723Z,27.30
2017-03-09T05:57:44.724Z,26.83
2017-03-09T05:58:43.615Z,24.15
2017-03-09T05:59:42.801Z,20.98
2017-03-09T06:00:41.704Z,20.22
2017-03-09T06:01:41.067Z,22.23
2017-03-09T06:02:40.098Z,21.38
2017-03-09T06:03:39.070Z,22.00
2017-03-09T06:04:37.794Z,22.60
2017-03-09T06:05:36.624Z,22.43
2017-03-09T06:06:35.366Z,21.65
2017-03-09T06:07:34.014Z,22.98
2017-03-09T06:08:32.668Z,21.83
2017-03-09T06:09:31.419Z,23.08
2017-03-09T06:10:30.574Z,22.05
2017-03-09T06:11:29.940Z,23.53
2017-03-09T06:12:28.879Z,22.55
2017-03-09T06:13:28.810Z,23.47
2017-03-09T06:14:29.453Z,19.98
2017-03-09T06:15:29.573Z,20.52
2017-03-09T06:16:28.267Z,20.42
2017-03-09T06:17:27.091Z,18.90
2017-03-09T06:18:25.943Z,18.93
2017-03-09T06:19:26.045Z,19.35
2017-03-09T06:20:24.918Z,19.32
2017-03-09T06:21:25.218Z,18.08
2017-03-09T06:22:24.234Z,20.73
2017-03-09T06:23:28.602Z,21.33
2017-03-09T06:24:32.322Z,22.72
2017-03-09T06:25:31.206Z,24.72
2017-03-09T06:26:30.203Z,23.63
2017-03-09T06:27:28.910Z,22.60
2017-03-09T06:28:28.074Z,24.95
2017-03-09T06:29:26.989Z,24.08
2017-03-09T06:30:25.677Z,22.47
2017-03-09T06:31:24.663Z,22.65
2017-03-09T06:32:23.949Z,23.65
2017-03-09T06:33:24.325Z,25.83
2017-03-09T06:34:22.987Z,27.75
2017-03-09T06:35:21.662Z,30.87
2017-03-09T06:36:20.569Z,30.18
2017-03-09T06:37:19.459Z,26.92
2017-03-09T06:38:18.342Z,28.78
2017-03-09T06:39:17.113Z,30.08
2017-03-09T06:40:16.010Z,29.57
2017-03-09T06:41:14.943Z,28.07
2017-03-09T06:42:13.519Z,29.60
2017-03-09T06:43:12.724Z,29.70
2017-03-09T06:44:12.123Z,26.95
2017-03-09T06:45:11.131Z,27.93
2017-03-09T06:46:09.810Z,28.30
2017-03-09T06:47:08.857Z,26.80
2017-03-09T06:48:08.051Z,25.90
2017-03-09T06:49:07.347Z,27.05
2017-03-09T06:50:06.163Z,26.85
2017-03-09T06:51:04.825Z,25.43
2017-03-09T06:52:04.022Z,26.52
2017-03-09T06:53:02.787Z,28.17
2017-03-09T06:54:01.436Z,30.08
2017-03-09T06:55:00.609Z,26.62
2017-03-09T06:56:00.317Z,25.93
2017-03-09T06:56:59.339Z,26.37
2017-03-09T06:57:58.363Z,25.42
2017-03-09T06:58:57.297Z,24.93
2017-03-09T06:59:56.448Z,28.53
2017-03-09T07:00:57.235Z,27.13
2017-03-09T07:01:56.186Z,26.43
2017-03-09T07:02:55.562Z,26.20
2017-03-09T07:03:54.442Z,27.72
2017-03-09T07:04:53.114Z,29.45
2017-03-09T07:05:52.490Z,32.30
2017-03-09T07:06:51.640Z,32.15
2017-03-09T07:07:50.907Z,28.47
2017-03-09T07:08:49.716Z,29.28
2017-03-09T07:09:48.797Z,30.22
2017-03-09T07:10:47.841Z,29.52
2017-03-09T07:11:46.836Z,30.50
2017-03-09T07:12:45.516Z,29.58
2017-03-09T07:13:44.563Z,27.50
2017-03-09T07:14:43.459Z,28.37
2017-03-09T07:15:42.422Z,28.83
2017-03-09T07:16:41.081Z,27.97
2017-03-09T07:17:40.524Z,27.07
2017-03-09T07:18:40.162Z,27.08
2017-03-09T07:19:39.596Z,27.95
2017-03-09T07:20:38.445Z,26.87
2017-03-09T07:21:37.068Z,28.95
2017-03-09T07:22:35.822Z,27.90
2017-03-09T07:23:34.461Z,28.72
2017-03-09T07:24:33.329Z,28.88
2017-03-09T07:25:32.523Z,28.83
2017-03-09T07:26:31.845Z,30.25
2017-03-09T07:27:31.617Z,29.07
2017-03-09T07:28:30.227Z,29.05
2017-03-09T07:29:30.120Z,30.00
2017-03-09T07:30:29.586Z,26.87
2017-03-09T07:31:29.199Z,27.55
2017-03-09T07:32:28.250Z,28.55
2017-03-09T07:33:27.363Z,27.68
2017-03-09T07:34:28.643Z,26.50
2017-03-09T07:35:28.028Z,27.00
2017-03-09T07:36:27.009Z,28.60
2017-03-09T07:37:26.178Z,25.32
2017-03-09T07:38:27.392Z,26.80
2017-03-09T07:39:26.203Z,25.80
2017-03-09T07:40:25.051Z,27.05
2017-03-09T07:41:23.911Z,28.02
2017-03-09T07:42:23.183Z,27.97
2017-03-09T07:43:22.394Z,26.75
2017-03-09T07:44:23.419Z,27.60
2017-03-09T07:45:22.437Z,24.83
2017-03-09T07:46:21.081Z,27.25
2017-03-09T07:47:19.780Z,26.45
2017-03-09T07:48:19.586Z,27.65
2017-03-09T07:49:19.825Z,27.10
2017-03-09T07:50:18.862Z,28.25
2017-03-09T07:51:17.542Z,26.75
2017-03-09T07:52:16.634Z,28.13
2017-03-09T07:53:16.302Z,29.30
2017-03-09T07:54:15.102Z,26.25
2017-03-09T07:55:14.557Z,29.62
2017-03-09T07:56:13.486Z,28.68
2017-03-09T07:57:12.541Z,28.07
2017-03-09T07:58:11.471Z,29.50
2017-03-09T07:59:10.263Z,27.57
2017-03-09T08:00:08.987Z,28.50
2017-03-09T08:01:07.992Z,28.77
2017-03-09T08:02:06.853Z,29.30
2017-03-09T08:03:05.523Z,29.12
2017-03-09T08:04:04.288Z,29.35
2017-03-09T08:05:03.455Z,28.98
2017-03-09T08:06:02.331Z,30.73
2017-03-09T08:07:01.011Z,30.17
2017-03-09T08:07:59.880Z,28.62
2017-03-09T08:08:58.660Z,32.07
2017-03-09T08:09:57.362Z,30.27
2017-03-09T08:10:56.206Z,29.13
2017-03-09T08:11:54.989Z,30.18
2017-03-09T08:12:53.565Z,29.03
2017-03-09T08:13:52.657Z,30.30
2017-03-09T08:14:51.625Z,30.13
2017-03-09T08:15:51.473Z,32.45
2017-03-09T08:16:50.999Z,29.13
2017-03-09T08:17:49.627Z,30.77
2017-03-09T08:18:48.620Z,31.72
2017-03-09T08:19:48.009Z,28.60
2017-03-09T08:20:46.995Z,29.55
2017-03-09T08:21:46.219Z,30.68
2017-03-09T08:22:45.158Z,31.12
2017-03-09T08:23:44.275Z,29.93
2017-03-09T08:24:43.195Z,30.52
2017-03-09T08:25:41.855Z,30.55
2017-03-09T08:26:40.827Z,33.27
2017-03-09T08:27:39.507Z,32.97
2017-03-09T08:28:38.578Z,33.25
2017-03-09T08:29:37.103Z,35.52
2017-03-09T08:30:36.685Z,35.48
2017-03-09T08:31:35.912Z,35.48
2017-03-09T08:32:34.990Z,36.97
2017-03-09T08:33:33.578Z,34.68
2017-03-09T08:34:32.326Z,35.07
2017-03-09T08:35:31.347Z,35.25
2017-03-09T08:36:30.027Z,34.77
2017-03-09T08:37:29.595Z,33.92
2017-03-09T08:39:26.673Z,32.60
2017-03-09T08:40:26.376Z,32.32
2017-03-09T08:41:25.402Z,33.85
2017-03-09T08:42:24.319Z,31.43
2017-03-09T08:43:22.992Z,32.05
2017-03-09T08:44:21.607Z,34.75
2017-03-09T08:45:20.797Z,32.73
2017-03-09T08:47:19.139Z,32.98
2017-03-09T08:48:18.654Z,35.40
2017-03-09T08:49:17.367Z,33.92
2017-03-09T08:50:16.475Z,33.58
2017-03-09T08:51:15.311Z,38.73
2017-03-09T08:52:14.010Z,35.67
2017-03-09T08:53:12.825Z,38.27
2017-03-09T08:54:11.664Z,36.47
2017-03-09T08:55:10.640Z,35.13
2017-03-09T08:56:09.202Z,40.88
2017-03-09T08:57:08.351Z,39.17
2017-03-09T08:58:07.060Z,39.58
2017-03-09T08:59:06.379Z,34.08
2017-03-09T09:00:05.114Z,33.68
2017-03-09T09:01:04.679Z,34.42
2017-03-09T09:02:03.676Z,34.90
2017-03-09T09:03:02.776Z,36.05
2017-03-09T09:04:01.444Z,33.57
2017-03-09T09:05:00.672Z,32.93
2017-03-09T09:06:00.259Z,33.95
2017-03-09T09:06:59.374Z,36.60
2017-03-09T09:07:58.054Z,33.55
2017-03-09T09:08:58.470Z,34.37
2017-03-09T09:09:57.533Z,35.12
2017-03-09T09:10:56.572Z,38.08
2017-03-09T09:11:55.446Z,35.30
2017-03-09T09:12:54.316Z,36.50
2017-03-09T09:13:53.606Z,37.18
2017-03-09T09:14:52.900Z,37.07
2017-03-09T09:15:52.180Z,36.07
2017-03-09T09:16:50.920Z,38.17
2017-03-09T09:17:49.508Z,35.68
2017-03-09T09:18:48.644Z,36.22
2017-03-09T09:19:47.685Z,35.73
2017-03-09T09:20:46.639Z,37.62
2017-03-09T09:21:46.226Z,37.83
2017-03-09T09:22:45.107Z,34.87
2017-03-09T09:23:44.458Z,37.37
2017-03-09T09:24:43.928Z,37.50
2017-03-09T09:25:42.817Z,35.62
2017-03-09T09:26:41.455Z,32.50
2017-03-09T09:27:40.409Z,33.88
2017-03-09T09:28:39.532Z,35.47
2017-03-09T09:29:38.374Z,35.85
2017-03-09T09:30:37.399Z,35.72
2017-03-09T09:31:36.371Z,35.00
2017-03-09T09:32:35.465Z,36.25
2017-03-09T09:33:34.109Z,38.47
2017-03-09T09:34:34.704Z,32.38
2017-03-09T09:35:33.327Z,34.83
2017-03-09T09:36:32.382Z,34.05
2017-03-09T09:37:31.309Z,35.32
2017-03-09T09:38:30.313Z,34.32
2017-03-09T09:39:30.752Z,35.28
2017-03-09T09:40:29.615Z,34.60
2017-03-09T09:41:30.683Z,35.05
2017-03-09T09:42:35.957Z,38.32
2017-03-09T09:43:42.038Z,37.77
2017-03-09T09:44:41.442Z,38.77
2017-03-09T09:45:41.478Z,37.82
2017-03-09T09:46:40.133Z,40.22
2017-03-09T09:47:39.606Z,53.92
2017-03-09T09:48:40.721Z,84.43
2017-03-09T09:49:41.046Z,98.47
2017-03-09T09:50:41.432Z,81.55
2017-03-09T09:51:43.529Z,47.97
2017-03-09T09:52:43.759Z,40.07
2017-03-09T09:53:44.035Z,35.80
2017-03-09T09:54:43.329Z,36.32
2017-03-09T09:55:43.064Z,36.97
2017-03-09T09:56:42.310Z,34.38
2017-03-09T09:57:41.969Z,37.08
2017-03-09T09:58:41.265Z,34.40
2017-03-09T09:59:40.812Z,36.45
2017-03-09T10:00:44.417Z,34.88
2017-03-09T10:01:43.581Z,35.43
2017-03-09T10:02:42.862Z,32.73
2017-03-09T10:03:42.977Z,35.67
2017-03-09T10:04:42.113Z,33.57
2017-03-09T10:05:41.833Z,32.53
2017-03-09T10:06:41.331Z,42.40
2017-03-09T10:07:41.114Z,36.63
2017-03-09T10:08:43.459Z,32.38
2017-03-09T10:09:42.369Z,36.83
2017-03-09T10:10:41.768Z,39.95
2017-03-09T10:11:42.004Z,35.97
2017-03-09T10:12:43.174Z,36.38
2017-03-09T10:13:42.243Z,35.95
2017-03-09T10:14:42.526Z,33.40
2017-03-09T10:15:42.752Z,35.32
2017-03-09T10:16:42.633Z,36.63
2017-03-09T10:17:42.440Z,41.80
2017-03-09T10:18:42.008Z,39.15
2017-03-09T10:19:41.978Z,39.40
2017-03-09T10:20:41.652Z,41.45
2017-03-09T10:21:41.580Z,38.93
2017-03-09T10:22:40.898Z,32.47
2017-03-09T10:23:40.088Z,32.12
2017-03-09T10:24:39.999Z,26.07
2017-03-09T10:25:38.936Z,26.75
2017-03-09T10:26:39.362Z,27.55
2017-03-09T10:27:38.685Z,27.98
2017-03-09T10:28:39.457Z,30.93
2017-03-09T10:29:39.220Z,32.57
2017-03-09T10:30:38.775Z,29.32
2017-03-09T10:31:38.771Z,27.02
2017-03-09T10:32:39.355Z,30.38
2017-03-09T10:33:38.728Z,33.68
2017-03-09T10:34:37.956Z,44.90
2017-03-09T10:35:38.931Z,65.08
2017-03-09T10:36:37.977Z,65.23
2017-03-09T10:37:37.919Z,30.18
2017-03-09T10:38:37.162Z,47.27
2017-03-09T10:39:37.491Z,33.35
2017-03-09T10:40:36.745Z,30.00
2017-03-09T10:41:36.481Z,31.02
2017-03-09T10:42:36.843Z,28.72
2017-03-09T10:43:36.713Z,25.43
2017-03-09T10:44:35.985Z,23.57
2017-03-09T10:45:35.330Z,22.75
2017-03-09T10:46:34.863Z,24.23
2017-03-09T10:47:34.401Z,22.87
2017-03-09T10:48:34.429Z,21.73
2017-03-09T10:49:34.029Z,20.78
2017-03-09T10:50:33.658Z,20.45
2017-03-09T10:51:33.557Z,22.75
2017-03-09T10:52:33.855Z,22.42
2017-03-09T10:53:33.398Z,22.32
2017-03-09T10:54:33.125Z,20.55
2017-03-09T10:55:32.938Z,19.47
2017-03-09T10:56:32.722Z,19.43
2017-03-09T10:57:32.214Z,20.08
2017-03-09T10:58:32.484Z,19.95
2017-03-09T10:59:31.644Z,22.42
2017-03-09T11:00:31.845Z,20.25
2017-03-09T11:01:31.411Z,19.78
2017-03-09T11:02:31.077Z,19.55
2017-03-09T11:03:30.350Z,18.87
2017-03-09T11:04:30.193Z,18.38
2017-03-09T11:05:29.751Z,22.22
2017-03-09T11:06:29.694Z,21.20
2017-03-09T11:07:29.390Z,20.28
2017-03-09T11:08:30.767Z,20.78
2017-03-09T11:09:30.815Z,23.02
2017-03-09T11:10:30.661Z,21.78
2017-03-09T11:11:31.161Z,20.07
2017-03-09T11:12:31.073Z,19.13
2017-03-09T11:13:31.580Z,17.90
2017-03-09T11:14:31.465Z,18.03
2017-03-09T11:15:34.836Z,17.50
2017-03-09T11:16:33.880Z,18.15
2017-03-09T11:17:33.653Z,19.02
2017-03-09T11:18:32.665Z,17.37
2017-03-09T11:19:32.007Z,17.25
2017-03-09T11:20:31.841Z,17.62
2017-03-09T11:21:31.751Z,17.55
2017-03-09T11:22:31.716Z,19.10
2017-03-09T11:23:31.814Z,20.33
2017-03-09T11:24:30.844Z,20.58
2017-03-09T11:25:30.279Z,17.53
2017-03-09T11:26:30.903Z,17.62
2017-03-09T11:27:30.556Z,18.07
2017-03-09T11:28:29.346Z,17.87
2017-03-09T11:29:29.174Z,19.55
2017-03-09T11:30:28.275Z,20.55
2017-03-09T11:31:27.724Z,20.05
2017-03-09T11:32:28.326Z,17.87
2017-03-09T11:33:28.053Z,15.55
2017-03-09T11:34:27.699Z,17.35
2017-03-09T11:35:27.344Z,18.30
2017-03-09T11:36:29.515Z,19.25
2017-03-09T11:37:33.156Z,18.95
2017-03-09T11:38:33.401Z,16.68
2017-03-09T11:39:32.712Z,18.13
2017-03-09T11:40:33.811Z,16.73
2017-03-09T11:41:35.219Z,17.12
2017-03-09T11:42:34.671Z,16.33
2017-03-09T11:43:35.403Z,19.02
2017-03-09T11:44:36.527Z,18.32
2017-03-09T11:45:35.886Z,19.03
2017-03-09T11:46:36.089Z,18.07
2017-03-09T11:47:35.685Z,16.00
2017-03-09T11:48:35.028Z,15.88
2017-03-09T11:49:34.505Z,15.60
2017-03-09T11:50:35.619Z,16.10
2017-03-09T11:51:34.759Z,17.95
2017-03-09T11:52:34.443Z,16.00
2017-03-09T11:53:34.514Z,15.62
2017-03-09T11:54:34.844Z,17.98
2017-03-09T11:55:35.810Z,17.85
2017-03-09T11:56:39.008Z,16.63
2017-03-09T11:57:38.628Z,18.45
2017-03-09T11:58:38.013Z,17.50
2017-03-09T11:59:38.044Z,19.32
2017-03-09T12:00:40.941Z,19.28
2017-03-09T12:01:39.998Z,20.98
2017-03-09T12:02:40.313Z,19.48
2017-03-09T12:03:40.313Z,20.20
2017-03-09T12:04:44.813Z,20.32
2017-03-09T12:05:45.497Z,19.45
2017-03-09T12:06:45.228Z,18.03
2017-03-09T12:07:44.796Z,19.60
2017-03-09T12:08:45.748Z,17.32
2017-03-09T12:09:48.101Z,19.05
2017-03-09T12:10:47.302Z,17.05
2017-03-09T12:11:47.728Z,15.15
2017-03-09T12:12:47.476Z,16.17
2017-03-09T12:13:47.021Z,16.87
2017-03-09T12:14:48.459Z,18.63
2017-03-09T12:15:47.708Z,18.17
2017-03-09T12:16:49.159Z,18.48
2017-03-09T12:17:49.450Z,16.00
2017-03-09T12:18:48.712Z,16.83
2017-03-09T12:19:48.034Z,15.62
2017-03-09T12:20:47.328Z,16.45
2017-03-09T12:21:47.685Z,16.30
2017-03-09T12:22:48.951Z,15.77
2017-03-09T12:23:50.571Z,17.13
2017-03-09T12:24:50.019Z,16.82
2017-03-09T12:25:49.615Z,15.70
2017-03-09T12:26:49.946Z,16.15
2017-03-09T12:27:49.727Z,13.77
2017-03-09T12:28:48.854Z,15.05
2017-03-09T12:29:50.642Z,14.65
2017-03-09T12:30:50.978Z,14.15
2017-03-09T12:31:52.400Z,13.60
2017-03-09T12:32:52.960Z,13.65
2017-03-09T12:33:52.698Z,12.42
2017-03-09T12:34:52.623Z,13.47
2017-03-09T12:35:52.482Z,13.45
2017-03-09T12:36:55.731Z,14.00
2017-03-09T12:37:55.119Z,11.13
2017-03-09T12:38:54.576Z,11.45
2017-03-09T12:39:54.190Z,11.90
2017-03-09T12:40:54.471Z,10.52
2017-03-09T12:42:01.656Z,12.42
2017-03-09T12:43:01.270Z,13.88
2017-03-09T12:44:00.742Z,13.32
2017-03-09T12:45:00.453Z,12.02
2017-03-09T12:46:00.033Z,9.63
2017-03-09T12:46:58.937Z,9.38